createdAt,value
2018-08-10T00:00:22.756Z,19.60
2018-08-10T00:04:27.143Z,19.50
2018-08-10T00:08:31.364Z,19.50
2018-08-10T00:12:35.672Z,19.40
2018-08-10T00:16:39.958Z,19.40
2018-08-10T00:20:44.208Z,19.40
2018-08-10T00:24:48.467Z,19.30
2018-08-10T00:28:52.770Z,19.30
2018-08-10T00:32:57.029Z,19.30
2018-08-10T00:37:01.301Z,19.20
2018-08-10T00:41:05.656Z,19.30
2018-08-10T00:45:11.057Z,19.20
2018-08-10T00:49:15.401Z,19.20
2018-08-10T00:53:19.638Z,19.20
2018-08-10T00:57:23.939Z,19.10
2018-08-10T01:01:28.264Z,19.10
2018-08-10T01:05:32.476Z,19.10
2018-08-10T01:09:36.804Z,19.00
2018-08-10T01:13:41.137Z,19.00
2018-08-10T01:17:46.164Z,18.90
2018-08-10T01:21:50.462Z,18.80
2018-08-10T01:25:54.834Z,18.80
2018-08-10T01:29:59.122Z,18.80
2018-08-10T01:34:03.440Z,18.90
2018-08-10T01:38:07.665Z,18.80
2018-08-10T01:42:11.932Z,18.80
2018-08-10T01:46:16.324Z,18.90
2018-08-10T01:50:20.593Z,18.80
2018-08-10T01:54:24.957Z,18.70
2018-08-10T01:58:29.162Z,18.70
2018-08-10T02:02:33.470Z,18.60
2018-08-10T02:06:37.783Z,18.50
2018-08-10T02:10:42.084Z,18.50
2018-08-10T02:14:46.300Z,18.50
2018-08-10T02:18:50.603Z,18.40
2018-08-10T02:22:54.937Z,18.40
2018-08-10T02:26:59.199Z,18.40
2018-08-10T02:31:03.503Z,18.30
2018-08-10T02:35:08.226Z,18.30
2018-08-10T02:39:13.286Z,18.30
2018-08-10T02:43:17.559Z,18.30
2018-08-10T02:47:23.711Z,18.30
2018-08-10T02:51:27.965Z,18.30
2018-08-10T02:55:32.287Z,18.30
2018-08-10T02:59:36.530Z,18.40
2018-08-10T03:03:40.849Z,18.30
2018-08-10T03:07:45.117Z,18.10
2018-08-10T03:11:49.396Z,18.10
2018-08-10T03:15:53.657Z,18.00
2018-08-10T03:19:57.902Z,18.00
2018-08-10T03:24:02.253Z,17.90
2018-08-10T03:28:06.470Z,17.90
2018-08-10T03:32:10.734Z,17.90
2018-08-10T03:36:14.987Z,17.90
2018-08-10T03:40:19.697Z,17.90
2018-08-10T03:44:23.925Z,17.90
2018-08-10T03:48:28.222Z,17.80
2018-08-10T03:52:32.454Z,17.80
2018-08-10T03:56:36.671Z,17.90
2018-08-10T04:00:40.918Z,17.80
2018-08-10T04:04:45.166Z,17.90
2018-08-10T04:08:49.392Z,17.90
2018-08-10T04:12:53.732Z,17.90
2018-08-10T04:16:57.984Z,17.90
2018-08-10T04:21:02.218Z,18.00
2018-08-10T04:25:06.592Z,18.00
2018-08-10T04:29:10.857Z,18.00
2018-08-10T04:33:15.333Z,18.20
2018-08-10T04:37:19.837Z,18.20
2018-08-10T04:41:24.105Z,18.30
2018-08-10T04:45:28.583Z,18.40
2018-08-10T04:49:32.883Z,18.50
2018-08-10T04:53:37.139Z,18.50
2018-08-10T04:57:41.823Z,18.60
2018-08-10T05:01:46.004Z,18.70
2018-08-10T05:05:50.257Z,18.80
2018-08-10T05:09:57.154Z,18.90
2018-08-10T05:14:01.309Z,19.00
2018-08-10T05:18:05.732Z,19.20
2018-08-10T05:22:09.996Z,19.30
2018-08-10T05:26:14.288Z,19.40
2018-08-10T05:30:18.851Z,19.50
2018-08-10T05:34:23.196Z,19.70
2018-08-10T05:38:27.449Z,19.80
2018-08-10T05:42:31.763Z,19.90
2018-08-10T05:46:36.063Z,20.00
2018-08-10T05:50:40.266Z,20.10
2018-08-10T05:54:44.482Z,20.30
2018-08-10T05:58:49.776Z,20.40
2018-08-10T06:02:54.013Z,20.60
2018-08-10T06:06:58.310Z,20.80
2018-08-10T06:11:02.535Z,21.00
2018-08-10T06:15:08.128Z,21.20
2018-08-10T06:19:12.349Z,21.50
2018-08-10T06:23:16.693Z,21.70
2018-08-10T06:27:20.896Z,21.90
2018-08-10T06:31:25.174Z,22.10
2018-08-10T06:35:29.437Z,22.30
2018-08-10T06:39:33.749Z,22.40
2018-08-10T06:43:37.955Z,22.80
2018-08-10T06:47:42.188Z,23.10
2018-08-10T06:51:46.358Z,23.30
2018-08-10T06:55:50.698Z,23.70
2018-08-10T06:59:54.916Z,24.50
2018-08-10T07:03:59.162Z,24.90
2018-08-10T07:08:03.405Z,25.10
2018-08-10T07:12:07.657Z,25.60
2018-08-10T07:16:11.853Z,25.40
2018-08-10T07:20:16.171Z,25.50
2018-08-10T07:24:20.424Z,25.80
2018-08-10T07:28:24.619Z,25.60
2018-08-10T07:32:28.847Z,25.80
2018-08-10T07:36:33.139Z,25.90
2018-08-10T07:40:37.433Z,26.10
2018-08-10T07:44:41.664Z,26.50
2018-08-10T07:48:48.860Z,26.80
2018-08-10T07:52:53.085Z,27.70
2018-08-10T07:56:57.296Z,27.60
2018-08-10T08:01:01.501Z,27.90
2018-08-10T08:05:07.018Z,27.50
2018-08-10T08:09:12.915Z,27.60
2018-08-10T08:13:17.185Z,27.20
2018-08-10T08:17:21.408Z,27.30
2018-08-10T08:21:25.677Z,27.30
2018-08-10T08:25:30.089Z,27.60
2018-08-10T08:29:34.828Z,27.90
2018-08-10T08:33:50.052Z,28.20
2018-08-10T08:38:00.839Z,28.80
2018-08-10T08:42:05.184Z,29.50
2018-08-10T08:46:10.507Z,29.50
2018-08-10T08:50:14.724Z,29.60
2018-08-10T08:56:31.487Z,29.40
2018-08-10T09:00:36.099Z,29.20
2018-08-10T09:04:53.416Z,30.10
2018-08-10T09:09:08.968Z,30.60
2018-08-10T09:13:13.220Z,30.00
2018-08-10T09:17:17.798Z,30.40
2018-08-10T09:21:21.943Z,29.70
2018-08-10T09:25:26.246Z,29.50
2018-08-10T09:29:30.664Z,29.30
2018-08-10T09:33:35.427Z,29.10
2018-08-10T09:37:40.597Z,29.30
2018-08-10T09:41:45.955Z,29.70
2018-08-10T09:45:50.473Z,29.40
2018-08-10T09:49:55.731Z,29.40
2018-08-10T09:54:02.304Z,29.90
2018-08-10T09:58:11.699Z,30.70
2018-08-10T10:02:19.548Z,30.80
2018-08-10T10:06:25.027Z,31.10
2018-08-10T10:10:30.183Z,32.50
2018-08-10T10:14:34.880Z,32.10
2018-08-10T10:18:40.032Z,32.20
2018-08-10T10:22:45.999Z,31.90
2018-08-10T10:26:52.396Z,31.10
2018-08-10T10:30:58.525Z,31.90
2018-08-10T10:35:05.063Z,32.40
2018-08-10T10:39:13.873Z,33.00
2018-08-10T10:43:19.367Z,33.20
2018-08-10T10:47:24.681Z,32.30
2018-08-10T10:51:29.513Z,31.80
2018-08-10T10:55:35.464Z,32.00
2018-08-10T10:59:40.420Z,33.50
2018-08-10T11:03:45.791Z,35.00
2018-08-10T11:07:51.145Z,33.90
2018-08-10T11:11:56.572Z,34.10
2018-08-10T11:16:02.414Z,33.70
2018-08-10T11:20:08.301Z,32.00
2018-08-10T11:24:14.004Z,31.50
2018-08-10T11:28:19.164Z,30.80
2018-08-10T11:32:23.815Z,30.40
2018-08-10T11:36:29.277Z,31.00
2018-08-10T11:40:34.561Z,32.70
2018-08-10T11:44:39.309Z,31.80
2018-08-10T11:48:45.360Z,30.50
2018-08-10T11:52:50.791Z,29.50
2018-08-10T11:56:56.315Z,29.20
2018-08-10T12:01:01.932Z,29.70
2018-08-10T12:05:08.870Z,30.50
2018-08-10T12:09:13.874Z,31.30
2018-08-10T12:13:19.163Z,31.90
2018-08-10T12:17:23.767Z,33.00
2018-08-10T12:21:28.227Z,32.90
2018-08-10T12:25:33.648Z,32.50
2018-08-10T12:29:39.201Z,34.40
2018-08-10T12:33:45.542Z,35.70
2018-08-10T12:37:50.955Z,33.60
2018-08-10T12:41:57.567Z,33.70
2018-08-10T12:46:03.964Z,32.80
2018-08-10T12:50:10.978Z,31.80
2018-08-10T12:54:16.048Z,30.20
2018-08-10T12:58:21.240Z,29.90
2018-08-10T13:02:28.309Z,29.60
2018-08-10T13:06:33.233Z,28.80
2018-08-10T13:10:39.312Z,28.70
2018-08-10T13:14:45.395Z,28.20
2018-08-10T13:18:50.037Z,27.80
2018-08-10T13:22:54.932Z,27.30
2018-08-10T13:26:59.587Z,26.90
2018-08-10T13:31:04.919Z,25.40
2018-08-10T13:35:09.304Z,24.30
2018-08-10T13:39:16.512Z,23.50
2018-08-10T13:43:20.842Z,23.00
2018-08-10T13:47:25.639Z,22.50
2018-08-10T13:51:30.089Z,22.20
2018-08-10T13:55:38.474Z,21.80
2018-08-10T13:59:43.535Z,21.30
2018-08-10T14:03:48.239Z,20.80
2018-08-10T14:07:53.306Z,20.50
2018-08-10T14:11:57.743Z,20.30
2018-08-10T14:16:02.327Z,20.10
2018-08-10T14:20:08.113Z,20.00
2018-08-10T14:24:13.540Z,20.10
2018-08-10T14:28:17.816Z,20.50
2018-08-10T14:32:22.307Z,21.90
2018-08-10T14:36:26.939Z,23.30
2018-08-10T14:40:31.282Z,23.80
2018-08-10T14:44:39.393Z,24.10
2018-08-10T14:48:44.295Z,24.00
2018-08-10T14:52:49.389Z,24.00
2018-08-10T14:56:54.719Z,23.80
2018-08-10T15:00:59.612Z,23.20
2018-08-10T15:05:05.558Z,22.80
2018-08-10T15:09:13.165Z,23.10
2018-08-10T15:13:22.629Z,23.00
2018-08-10T15:17:28.132Z,23.00
2018-08-10T15:21:36.434Z,23.10
2018-08-10T15:25:41.456Z,23.70
2018-08-10T15:29:46.835Z,24.30
2018-08-10T15:33:52.149Z,23.70
2018-08-10T15:37:57.149Z,22.70
2018-08-10T15:42:02.303Z,22.20
2018-08-10T15:46:07.441Z,22.00
2018-08-10T15:50:13.009Z,21.80
2018-08-10T15:54:18.080Z,21.30
2018-08-10T15:58:22.898Z,21.10
2018-08-10T16:02:28.486Z,21.00
2018-08-10T16:06:36.664Z,20.80
2018-08-10T16:10:44.317Z,20.70
2018-08-10T16:14:48.576Z,20.70
2018-08-10T16:19:00.679Z,20.70
2018-08-10T16:23:04.979Z,20.80
2018-08-10T16:27:09.825Z,20.80
2018-08-10T16:31:14.189Z,20.70
2018-08-10T16:35:18.421Z,20.60
2018-08-10T16:39:22.729Z,20.60
2018-08-10T16:43:27.024Z,20.50
2018-08-10T16:47:32.059Z,20.40
2018-08-10T16:51:36.449Z,20.40
2018-08-10T16:55:40.727Z,20.30
2018-08-10T16:59:45.079Z,20.20
2018-08-10T17:03:49.353Z,20.20
2018-08-10T17:07:54.124Z,20.10
2018-08-10T17:11:58.404Z,20.10
2018-08-10T17:16:03.029Z,20.20
2018-08-10T17:20:07.569Z,20.20
2018-08-10T17:24:11.848Z,20.20
2018-08-10T17:28:16.131Z,20.20
2018-08-10T17:32:20.540Z,20.20
2018-08-10T17:36:24.776Z,20.00
2018-08-10T17:40:29.010Z,20.00
2018-08-10T17:44:36.165Z,20.00
2018-08-10T17:48:41.130Z,19.90
2018-08-10T17:52:46.728Z,19.90
2018-08-10T17:56:51.912Z,19.90
2018-08-10T18:00:57.281Z,19.90
2018-08-10T18:05:01.594Z,19.80
2018-08-10T18:09:10.942Z,19.90
2018-08-10T18:13:16.487Z,19.90
2018-08-10T18:17:21.528Z,19.90
2018-08-10T18:21:26.748Z,19.80
2018-08-10T18:25:31.498Z,19.80
2018-08-10T18:29:36.386Z,19.70
2018-08-10T18:33:41.400Z,19.60
2018-08-10T18:37:47.153Z,19.50
2018-08-10T18:41:51.497Z,19.40
2018-08-10T18:45:55.877Z,19.30
2018-08-10T18:50:00.154Z,19.20
2018-08-10T18:54:05.709Z,19.20
2018-08-10T18:58:10.696Z,19.20
2018-08-10T19:02:15.435Z,19.30
2018-08-10T19:06:20.742Z,19.30
2018-08-10T19:10:27.031Z,19.20
2018-08-10T19:14:31.941Z,19.10
2018-08-10T19:18:36.768Z,19.10
2018-08-10T19:22:41.588Z,18.90
2018-08-10T19:26:47.004Z,18.90
2018-08-10T19:30:51.919Z,18.80
2018-08-10T19:34:56.765Z,18.70
2018-08-10T19:39:01.010Z,18.60
2018-08-10T19:43:05.790Z,18.50
2018-08-10T19:47:10.925Z,18.50
2018-08-10T19:51:15.558Z,18.60
2018-08-10T19:55:20.561Z,18.50
2018-08-10T19:59:25.087Z,18.40
2018-08-10T20:03:29.842Z,18.30
2018-08-10T20:07:34.280Z,18.40
2018-08-10T20:11:39.697Z,18.60
2018-08-10T20:15:44.613Z,18.70
2018-08-10T20:19:49.094Z,18.70
2018-08-10T20:23:53.698Z,18.70
2018-08-10T20:28:00.314Z,18.50
2018-08-10T20:32:05.275Z,18.70
2018-08-10T20:36:10.075Z,18.60
2018-08-10T20:40:17.229Z,18.50
2018-08-10T20:44:22.625Z,18.50
2018-08-10T20:48:27.543Z,18.50
2018-08-10T20:52:32.100Z,18.50
2018-08-10T20:56:36.598Z,18.40
2018-08-10T21:00:41.780Z,18.40
2018-08-10T21:04:45.981Z,18.40
2018-08-10T21:08:50.390Z,18.30
2018-08-10T21:12:54.800Z,18.30
2018-08-10T21:16:59.437Z,18.30
2018-08-10T21:21:03.835Z,18.40
2018-08-10T21:25:09.017Z,18.30
2018-08-10T21:29:13.293Z,18.30
2018-08-10T21:33:17.716Z,18.40
2018-08-10T21:37:21.980Z,18.40
2018-08-10T21:41:26.572Z,18.40
2018-08-10T21:45:30.848Z,18.40
2018-08-10T21:49:35.233Z,18.40
2018-08-10T21:53:39.557Z,18.40
2018-08-10T21:57:43.754Z,18.30
2018-08-10T22:01:48.088Z,18.30
2018-08-10T22:05:52.399Z,18.20
2018-08-10T22:09:56.762Z,18.10
2018-08-10T22:14:06.155Z,18.20
2018-08-10T22:18:15.681Z,18.10
2018-08-10T22:22:19.938Z,18.10
2018-08-10T22:26:24.321Z,18.10
2018-08-10T22:30:28.836Z,18.10
2018-08-10T22:34:33.176Z,18.10
2018-08-10T22:38:37.420Z,18.10
2018-08-10T22:42:41.735Z,18.10
2018-08-10T22:46:45.968Z,17.90
2018-08-10T22:50:50.300Z,18.00
2018-08-10T22:54:54.557Z,18.00
2018-08-10T22:58:58.854Z,18.10
2018-08-10T23:03:03.082Z,18.00
2018-08-10T23:07:07.499Z,17.90
2018-08-10T23:11:11.769Z,17.90
2018-08-10T23:15:16.129Z,17.80
2018-08-10T23:19:20.358Z,17.70
2018-08-10T23:23:24.795Z,17.80
2018-08-10T23:27:29.015Z,17.80
2018-08-10T23:31:33.490Z,17.70
2018-08-10T23:35:37.760Z,17.80
2018-08-10T23:39:42.235Z,17.60
2018-08-10T23:43:46.481Z,17.60
2018-08-10T23:47:50.926Z,17.50
2018-08-10T23:51:55.256Z,17.60
2018-08-10T23:55:59.573Z,17.70
